sensor_id;sensor_type;location;lat;lon;timestamp;temperature;humidity
20845;DHT22;10583;49.084;8.646;2023-05-10T00:01:45;13.90;99.90
20845;DHT22;10583;49.084;8.646;2023-05-10T00:04:11;13.90;99.90
20845;DHT22;10583;49.084;8.646;2023-05-10T00:06:38;13.90;99.90
20845;DHT22;10583;49.084;8.646;2023-05-10T00:09:05;13.90;99.90
20845;DHT22;10583;49.084;8.646;2023-05-10T00:11:33;13.90;99.90
20845;DHT22;10583;49.084;8.646;2023-05-10T00:14:00;13.90;99.90
20845;DHT22;10583;49.084;8.646;2023-05-10T00:16:26;13.90;99.90
20845;DHT22;10583;49.084;8.646;2023-05-10T00:18:53;13.90;99.90
20845;DHT22;10583;49.084;8.646;2023-05-10T00:21:20;13.90;99.90
20845;DHT22;10583;49.084;8.646;2023-05-10T00:23:46;13.80;99.90
20845;DHT22;10583;49.084;8.646;2023-05-10T00:26:13;13.80;99.90
20845;DHT22;10583;49.084;8.646;2023-05-10T00:28:41;13.80;99.90
20845;DHT22;10583;49.084;8.646;2023-05-10T00:31:08;13.90;99.90
20845;DHT22;10583;49.084;8.646;2023-05-10T00:33:35;13.80;99.90
20845;DHT22;10583;49.084;8.646;2023-05-10T00:36:01;13.80;99.90
20845;DHT22;10583;49.084;8.646;2023-05-10T00:38:28;13.80;99.90
20845;DHT22;10583;49.084;8.646;2023-05-10T00:40:55;13.70;99.90
20845;DHT22;10583;49.084;8.646;2023-05-10T00:43:22;13.60;99.90
20845;DHT22;10583;49.084;8.646;2023-05-10T00:45:50;13.50;99.90
20845;DHT22;10583;49.084;8.646;2023-05-10T00:48:17;13.60;99.90
20845;DHT22;10583;49.084;8.646;2023-05-10T00:50:44;13.50;99.90
20845;DHT22;10583;49.084;8.646;2023-05-10T00:53:11;13.50;99.90
20845;DHT22;10583;49.084;8.646;2023-05-10T00:55:38;13.50;99.90
20845;DHT22;10583;49.084;8.646;2023-05-10T00:58:05;13.60;99.90
20845;DHT22;10583;49.084;8.646;2023-05-10T01:00:32;13.60;99.90
20845;DHT22;10583;49.084;8.646;2023-05-10T01:03:01;13.50;99.90
20845;DHT22;10583;49.084;8.646;2023-05-10T01:05:27;13.50;99.90
20845;DHT22;10583;49.084;8.646;2023-05-10T01:07:54;13.50;99.90
20845;DHT22;10583;49.084;8.646;2023-05-10T01:10:21;13.50;99.90
20845;DHT22;10583;49.084;8.646;2023-05-10T01:12:47;13.40;99.90
20845;DHT22;10583;49.084;8.646;2023-05-10T01:15:15;13.40;99.90
20845;DHT22;10583;49.084;8.646;2023-05-10T01:17:43;13.40;99.90
20845;DHT22;10583;49.084;8.646;2023-05-10T01:20:12;13.30;99.90
20845;DHT22;10583;49.084;8.646;2023-05-10T01:23:04;13.30;99.90
20845;DHT22;10583;49.084;8.646;2023-05-10T01:28:58;13.40;99.90
20845;DHT22;10583;49.084;8.646;2023-05-10T01:31:38;13.40;99.90
20845;DHT22;10583;49.084;8.646;2023-05-10T01:34:15;13.30;99.90
20845;DHT22;10583;49.084;8.646;2023-05-10T01:36:47;13.30;99.90
20845;DHT22;10583;49.084;8.646;2023-05-10T01:39:17;13.30;99.90
20845;DHT22;10583;49.084;8.646;2023-05-10T01:41:51;13.30;99.90
20845;DHT22;10583;49.084;8.646;2023-05-10T01:44:26;13.30;99.90
20845;DHT22;10583;49.084;8.646;2023-05-10T01:47:01;13.30;99.90
20845;DHT22;10583;49.084;8.646;2023-05-10T01:49:32;13.30;99.90
20845;DHT22;10583;49.084;8.646;2023-05-10T01:52:06;13.30;99.90
20845;DHT22;10583;49.084;8.646;2023-05-10T01:54:35;13.30;99.90
20845;DHT22;10583;49.084;8.646;2023-05-10T01:57:06;13.20;99.90
20845;DHT22;10583;49.084;8.646;2023-05-10T01:59:35;13.30;99.90
20845;DHT22;10583;49.084;8.646;2023-05-10T02:02:07;13.30;99.90
20845;DHT22;10583;49.084;8.646;2023-05-10T02:04:39;13.30;99.90
20845;DHT22;10583;49.084;8.646;2023-05-10T02:07:07;13.20;99.90
20845;DHT22;10583;49.084;8.646;2023-05-10T02:09:35;13.20;99.90
20845;DHT22;10583;49.084;8.646;2023-05-10T02:12:04;13.30;99.90
20845;DHT22;10583;49.084;8.646;2023-05-10T02:14:33;13.20;99.90
20845;DHT22;10583;49.084;8.646;2023-05-10T02:17:02;13.30;99.90
20845;DHT22;10583;49.084;8.646;2023-05-10T02:19:32;13.30;99.90
20845;DHT22;10583;49.084;8.646;2023-05-10T02:22:02;13.20;99.90
20845;DHT22;10583;49.084;8.646;2023-05-10T02:24:29;13.20;99.90
20845;DHT22;10583;49.084;8.646;2023-05-10T02:26:57;13.20;99.90
20845;DHT22;10583;49.084;8.646;2023-05-10T02:29:26;13.20;99.90
20845;DHT22;10583;49.084;8.646;2023-05-10T02:31:54;13.20;99.90
20845;DHT22;10583;49.084;8.646;2023-05-10T02:34:22;13.20;99.90
20845;DHT22;10583;49.084;8.646;2023-05-10T02:36:50;13.20;99.90
20845;DHT22;10583;49.084;8.646;2023-05-10T02:39:21;13.20;99.90
20845;DHT22;10583;49.084;8.646;2023-05-10T02:41:49;13.20;99.90
20845;DHT22;10583;49.084;8.646;2023-05-10T02:44:18;13.30;99.90
20845;DHT22;10583;49.084;8.646;2023-05-10T02:46:45;13.30;99.90
20845;DHT22;10583;49.084;8.646;2023-05-10T02:49:12;13.30;99.90
20845;DHT22;10583;49.084;8.646;2023-05-10T02:51:43;13.30;99.90
20845;DHT22;10583;49.084;8.646;2023-05-10T02:54:15;13.30;99.90
20845;DHT22;10583;49.084;8.646;2023-05-10T02:56:49;13.30;99.90
20845;DHT22;10583;49.084;8.646;2023-05-10T02:59:17;13.30;99.90
20845;DHT22;10583;49.084;8.646;2023-05-10T03:01:43;13.30;99.90
20845;DHT22;10583;49.084;8.646;2023-05-10T03:04:10;13.30;99.90
20845;DHT22;10583;49.084;8.646;2023-05-10T03:06:37;13.30;99.90
20845;DHT22;10583;49.084;8.646;2023-05-10T03:09:04;13.30;99.90
20845;DHT22;10583;49.084;8.646;2023-05-10T03:11:43;13.40;99.90
20845;DHT22;10583;49.084;8.646;2023-05-10T03:14:23;13.40;99.90
20845;DHT22;10583;49.084;8.646;2023-05-10T03:16:56;13.40;99.90
20845;DHT22;10583;49.084;8.646;2023-05-10T03:19:27;13.40;99.90
20845;DHT22;10583;49.084;8.646;2023-05-10T03:21:59;13.40;99.90
20845;DHT22;10583;49.084;8.646;2023-05-10T03:24:30;13.30;99.90
20845;DHT22;10583;49.084;8.646;2023-05-10T03:26:59;13.30;99.90
20845;DHT22;10583;49.084;8.646;2023-05-10T03:29:29;13.30;99.90
20845;DHT22;10583;49.084;8.646;2023-05-10T03:31:57;13.30;99.90
20845;DHT22;10583;49.084;8.646;2023-05-10T03:34:24;13.30;99.90
20845;DHT22;10583;49.084;8.646;2023-05-10T03:36:51;13.30;99.90
20845;DHT22;10583;49.084;8.646;2023-05-10T03:39:18;13.30;99.90
20845;DHT22;10583;49.084;8.646;2023-05-10T03:41:46;13.40;99.90
20845;DHT22;10583;49.084;8.646;2023-05-10T03:44:13;13.40;99.90
20845;DHT22;10583;49.084;8.646;2023-05-10T03:46:41;13.50;99.90
20845;DHT22;10583;49.084;8.646;2023-05-10T03:49:08;13.50;99.90
20845;DHT22;10583;49.084;8.646;2023-05-10T03:51:34;13.50;99.90
20845;DHT22;10583;49.084;8.646;2023-05-10T03:54:01;13.50;99.90
20845;DHT22;10583;49.084;8.646;2023-05-10T03:56:28;13.40;99.90
20845;DHT22;10583;49.084;8.646;2023-05-10T03:58:55;13.40;99.90
20845;DHT22;10583;49.084;8.646;2023-05-10T04:01:22;13.40;99.90
20845;DHT22;10583;49.084;8.646;2023-05-10T04:03:50;13.30;99.90
20845;DHT22;10583;49.084;8.646;2023-05-10T04:06:16;13.30;99.90
20845;DHT22;10583;49.084;8.646;2023-05-10T04:08:43;13.30;99.90
20845;DHT22;10583;49.084;8.646;2023-05-10T04:11:10;13.30;99.90
20845;DHT22;10583;49.084;8.646;2023-05-10T04:13:38;13.20;99.90
20845;DHT22;10583;49.084;8.646;2023-05-10T04:16:05;13.20;99.90
20845;DHT22;10583;49.084;8.646;2023-05-10T04:18:32;13.20;99.90
20845;DHT22;10583;49.084;8.646;2023-05-10T04:21:00;13.20;99.90
20845;DHT22;10583;49.084;8.646;2023-05-10T04:23:27;13.20;99.90
20845;DHT22;10583;49.084;8.646;2023-05-10T04:26:00;13.20;99.90
20845;DHT22;10583;49.084;8.646;2023-05-10T04:28:27;13.20;99.90
20845;DHT22;10583;49.084;8.646;2023-05-10T04:30:59;13.20;99.90
20845;DHT22;10583;49.084;8.646;2023-05-10T04:33:26;13.30;99.90
20845;DHT22;10583;49.084;8.646;2023-05-10T04:35:53;13.30;99.90
20845;DHT22;10583;49.084;8.646;2023-05-10T04:38:21;13.30;99.90
20845;DHT22;10583;49.084;8.646;2023-05-10T04:40:48;13.30;99.90
20845;DHT22;10583;49.084;8.646;2023-05-10T04:43:15;13.30;99.90
20845;DHT22;10583;49.084;8.646;2023-05-10T04:45:41;13.20;99.90
20845;DHT22;10583;49.084;8.646;2023-05-10T04:48:08;13.30;99.90
20845;DHT22;10583;49.084;8.646;2023-05-10T04:50:35;13.30;99.90
20845;DHT22;10583;49.084;8.646;2023-05-10T04:53:02;13.30;99.90
20845;DHT22;10583;49.084;8.646;2023-05-10T04:55:30;13.40;99.90
20845;DHT22;10583;49.084;8.646;2023-05-10T04:57:57;13.40;99.90
20845;DHT22;10583;49.084;8.646;2023-05-10T05:00:24;13.40;99.90
20845;DHT22;10583;49.084;8.646;2023-05-10T05:02:51;13.40;99.90
20845;DHT22;10583;49.084;8.646;2023-05-10T05:05:18;13.50;99.90
20845;DHT22;10583;49.084;8.646;2023-05-10T05:07:45;13.40;99.90
20845;DHT22;10583;49.084;8.646;2023-05-10T05:10:12;13.40;99.90
20845;DHT22;10583;49.084;8.646;2023-05-10T05:12:40;13.50;99.90
20845;DHT22;10583;49.084;8.646;2023-05-10T05:15:07;13.50;99.90
20845;DHT22;10583;49.084;8.646;2023-05-10T05:17:34;13.60;99.90
20845;DHT22;10583;49.084;8.646;2023-05-10T05:20:01;13.60;99.90
20845;DHT22;10583;49.084;8.646;2023-05-10T05:22:28;13.70;99.90
20845;DHT22;10583;49.084;8.646;2023-05-10T05:24:55;13.70;99.90
20845;DHT22;10583;49.084;8.646;2023-05-10T05:27:23;13.80;99.90
20845;DHT22;10583;49.084;8.646;2023-05-10T05:29:53;13.90;99.90
20845;DHT22;10583;49.084;8.646;2023-05-10T05:32:20;13.90;99.90
20845;DHT22;10583;49.084;8.646;2023-05-10T05:34:47;13.90;99.90
20845;DHT22;10583;49.084;8.646;2023-05-10T05:37:14;13.90;99.90
20845;DHT22;10583;49.084;8.646;2023-05-10T05:39:41;13.90;99.90
20845;DHT22;10583;49.084;8.646;2023-05-10T05:42:09;13.90;99.90
20845;DHT22;10583;49.084;8.646;2023-05-10T05:44:35;14.00;99.90
20845;DHT22;10583;49.084;8.646;2023-05-10T05:47:04;14.00;99.90
20845;DHT22;10583;49.084;8.646;2023-05-10T05:49:30;14.00;99.90
20845;DHT22;10583;49.084;8.646;2023-05-10T05:51:58;13.90;99.90
20845;DHT22;10583;49.084;8.646;2023-05-10T05:54:25;13.90;99.90
20845;DHT22;10583;49.084;8.646;2023-05-10T05:56:54;13.80;99.90
20845;DHT22;10583;49.084;8.646;2023-05-10T05:59:20;13.90;99.90
20845;DHT22;10583;49.084;8.646;2023-05-10T06:01:47;13.90;99.90
20845;DHT22;10583;49.084;8.646;2023-05-10T06:04:15;13.80;99.90
20845;DHT22;10583;49.084;8.646;2023-05-10T06:06:42;13.90;99.90
20845;DHT22;10583;49.084;8.646;2023-05-10T06:09:09;13.90;99.90
20845;DHT22;10583;49.084;8.646;2023-05-10T06:11:36;13.80;99.90
20845;DHT22;10583;49.084;8.646;2023-05-10T06:14:03;13.80;99.90
20845;DHT22;10583;49.084;8.646;2023-05-10T06:16:32;13.90;99.90
20845;DHT22;10583;49.084;8.646;2023-05-10T06:18:59;14.00;99.90
20845;DHT22;10583;49.084;8.646;2023-05-10T06:21:27;14.10;99.90
20845;DHT22;10583;49.084;8.646;2023-05-10T06:23:54;14.10;99.90
20845;DHT22;10583;49.084;8.646;2023-05-10T06:26:20;14.20;99.90
20845;DHT22;10583;49.084;8.646;2023-05-10T06:28:47;14.10;99.90
20845;DHT22;10583;49.084;8.646;2023-05-10T06:31:14;14.20;99.90
20845;DHT22;10583;49.084;8.646;2023-05-10T06:33:41;14.30;99.90
20845;DHT22;10583;49.084;8.646;2023-05-10T06:36:08;14.30;99.90
20845;DHT22;10583;49.084;8.646;2023-05-10T06:38:36;14.20;99.90
20845;DHT22;10583;49.084;8.646;2023-05-10T06:41:02;14.20;99.90
20845;DHT22;10583;49.084;8.646;2023-05-10T06:43:29;14.30;99.90
20845;DHT22;10583;49.084;8.646;2023-05-10T06:45:56;14.40;99.90
20845;DHT22;10583;49.084;8.646;2023-05-10T06:48:23;14.50;99.90
20845;DHT22;10583;49.084;8.646;2023-05-10T06:50:50;14.50;99.90
20845;DHT22;10583;49.084;8.646;2023-05-10T06:53:17;14.60;99.90
20845;DHT22;10583;49.084;8.646;2023-05-10T06:55:45;14.50;99.90
20845;DHT22;10583;49.084;8.646;2023-05-10T06:58:11;14.50;99.90
20845;DHT22;10583;49.084;8.646;2023-05-10T07:00:38;14.60;99.90
20845;DHT22;10583;49.084;8.646;2023-05-10T07:03:06;14.70;99.90
20845;DHT22;10583;49.084;8.646;2023-05-10T07:05:32;14.60;99.90
20845;DHT22;10583;49.084;8.646;2023-05-10T07:07:59;14.60;99.90
20845;DHT22;10583;49.084;8.646;2023-05-10T07:10:26;14.60;99.90
20845;DHT22;10583;49.084;8.646;2023-05-10T07:12:54;14.70;99.90
20845;DHT22;10583;49.084;8.646;2023-05-10T07:15:21;14.80;99.90
20845;DHT22;10583;49.084;8.646;2023-05-10T07:17:48;14.90;99.90
20845;DHT22;10583;49.084;8.646;2023-05-10T07:20:15;14.80;99.90
20845;DHT22;10583;49.084;8.646;2023-05-10T07:22:41;14.80;99.90
20845;DHT22;10583;49.084;8.646;2023-05-10T07:25:08;14.80;99.90
20845;DHT22;10583;49.084;8.646;2023-05-10T07:27:35;14.90;99.90
20845;DHT22;10583;49.084;8.646;2023-05-10T07:30:04;15.00;99.90
20845;DHT22;10583;49.084;8.646;2023-05-10T07:32:30;15.00;99.90
20845;DHT22;10583;49.084;8.646;2023-05-10T07:34:57;15.10;99.90
20845;DHT22;10583;49.084;8.646;2023-05-10T07:37:24;15.20;99.90
20845;DHT22;10583;49.084;8.646;2023-05-10T07:39:50;15.10;99.90
20845;DHT22;10583;49.084;8.646;2023-05-10T07:42:17;15.10;99.90
20845;DHT22;10583;49.084;8.646;2023-05-10T07:44:44;15.00;99.90
20845;DHT22;10583;49.084;8.646;2023-05-10T07:47:12;14.90;99.90
20845;DHT22;10583;49.084;8.646;2023-05-10T07:49:38;14.80;99.90
20845;DHT22;10583;49.084;8.646;2023-05-10T07:52:05;14.80;99.90
20845;DHT22;10583;49.084;8.646;2023-05-10T07:54:32;14.80;99.90
20845;DHT22;10583;49.084;8.646;2023-05-10T07:56:59;14.80;99.90
20845;DHT22;10583;49.084;8.646;2023-05-10T07:59:26;14.90;99.90
20845;DHT22;10583;49.084;8.646;2023-05-10T08:01:53;14.90;99.90
20845;DHT22;10583;49.084;8.646;2023-05-10T08:04:21;15.00;99.90
20845;DHT22;10583;49.084;8.646;2023-05-10T08:06:47;15.00;99.90
20845;DHT22;10583;49.084;8.646;2023-05-10T08:09:14;15.00;99.90
20845;DHT22;10583;49.084;8.646;2023-05-10T08:11:43;15.00;99.90
20845;DHT22;10583;49.084;8.646;2023-05-10T08:14:09;15.10;99.90
20845;DHT22;10583;49.084;8.646;2023-05-10T08:16:36;15.20;99.90
20845;DHT22;10583;49.084;8.646;2023-05-10T08:19:03;15.40;99.90
20845;DHT22;10583;49.084;8.646;2023-05-10T08:21:31;15.40;99.90
20845;DHT22;10583;49.084;8.646;2023-05-10T08:23:57;15.40;99.90
20845;DHT22;10583;49.084;8.646;2023-05-10T08:26:24;15.50;99.90
20845;DHT22;10583;49.084;8.646;2023-05-10T08:28:52;15.50;99.90
20845;DHT22;10583;49.084;8.646;2023-05-10T08:31:18;15.50;99.90
20845;DHT22;10583;49.084;8.646;2023-05-10T08:33:45;15.30;99.90
20845;DHT22;10583;49.084;8.646;2023-05-10T08:36:12;15.20;99.90
20845;DHT22;10583;49.084;8.646;2023-05-10T08:38:46;15.40;99.90
20845;DHT22;10583;49.084;8.646;2023-05-10T08:41:13;15.60;99.90
20845;DHT22;10583;49.084;8.646;2023-05-10T08:43:40;15.60;99.90
20845;DHT22;10583;49.084;8.646;2023-05-10T08:46:15;15.70;99.90
20845;DHT22;10583;49.084;8.646;2023-05-10T08:48:43;15.90;99.90
20845;DHT22;10583;49.084;8.646;2023-05-10T08:51:13;15.80;99.90
20845;DHT22;10583;49.084;8.646;2023-05-10T08:53:40;15.80;99.90
20845;DHT22;10583;49.084;8.646;2023-05-10T08:56:08;15.90;99.90
20845;DHT22;10583;49.084;8.646;2023-05-10T08:58:36;15.80;99.90
20845;DHT22;10583;49.084;8.646;2023-05-10T09:01:03;15.70;99.90
20845;DHT22;10583;49.084;8.646;2023-05-10T09:03:31;15.80;99.90
20845;DHT22;10583;49.084;8.646;2023-05-10T09:05:58;15.80;99.90
20845;DHT22;10583;49.084;8.646;2023-05-10T09:08:25;15.70;99.90
20845;DHT22;10583;49.084;8.646;2023-05-10T09:10:53;15.50;99.90
20845;DHT22;10583;49.084;8.646;2023-05-10T09:13:22;15.40;99.90
20845;DHT22;10583;49.084;8.646;2023-05-10T09:15:48;15.30;99.90
20845;DHT22;10583;49.084;8.646;2023-05-10T09:18:15;15.00;99.90
20845;DHT22;10583;49.084;8.646;2023-05-10T09:20:42;14.80;99.90
20845;DHT22;10583;49.084;8.646;2023-05-10T09:23:09;14.70;99.90
20845;DHT22;10583;49.084;8.646;2023-05-10T09:25:35;14.60;99.90
20845;DHT22;10583;49.084;8.646;2023-05-10T09:28:06;14.70;99.90
20845;DHT22;10583;49.084;8.646;2023-05-10T09:30:35;14.70;99.90
20845;DHT22;10583;49.084;8.646;2023-05-10T09:33:02;14.60;99.90
20845;DHT22;10583;49.084;8.646;2023-05-10T09:35:30;14.70;99.90
20845;DHT22;10583;49.084;8.646;2023-05-10T09:37:59;14.80;99.90
20845;DHT22;10583;49.084;8.646;2023-05-10T09:40:27;14.80;99.90
20845;DHT22;10583;49.084;8.646;2023-05-10T09:42:56;14.90;99.90
20845;DHT22;10583;49.084;8.646;2023-05-10T09:45:24;15.00;99.90
20845;DHT22;10583;49.084;8.646;2023-05-10T09:47:53;15.10;99.90
20845;DHT22;10583;49.084;8.646;2023-05-10T09:50:20;15.30;99.90
20845;DHT22;10583;49.084;8.646;2023-05-10T09:52:48;15.40;99.90
20845;DHT22;10583;49.084;8.646;2023-05-10T09:55:16;15.60;99.90
20845;DHT22;10583;49.084;8.646;2023-05-10T09:57:43;15.80;99.90
20845;DHT22;10583;49.084;8.646;2023-05-10T10:00:10;15.70;99.90
20845;DHT22;10583;49.084;8.646;2023-05-10T10:02:42;15.60;99.90
20845;DHT22;10583;49.084;8.646;2023-05-10T10:05:11;15.50;99.90
20845;DHT22;10583;49.084;8.646;2023-05-10T10:07:38;15.40;99.90
20845;DHT22;10583;49.084;8.646;2023-05-10T10:10:06;15.20;99.90
20845;DHT22;10583;49.084;8.646;2023-05-10T10:12:36;15.00;99.90
20845;DHT22;10583;49.084;8.646;2023-05-10T10:15:04;15.00;99.90
20845;DHT22;10583;49.084;8.646;2023-05-10T10:17:32;15.00;99.90
20845;DHT22;10583;49.084;8.646;2023-05-10T10:20:02;14.90;99.90
20845;DHT22;10583;49.084;8.646;2023-05-10T10:22:31;14.90;99.90
20845;DHT22;10583;49.084;8.646;2023-05-10T10:24:57;14.90;99.90
20845;DHT22;10583;49.084;8.646;2023-05-10T10:27:41;14.90;99.90
20845;DHT22;10583;49.084;8.646;2023-05-10T10:30:18;15.10;99.90
20845;DHT22;10583;49.084;8.646;2023-05-10T10:35:38;15.60;99.90
20845;DHT22;10583;49.084;8.646;2023-05-10T10:38:07;15.80;99.90
20845;DHT22;10583;49.084;8.646;2023-05-10T10:40:34;16.00;99.90
20845;DHT22;10583;49.084;8.646;2023-05-10T10:43:22;16.30;99.90
20845;DHT22;10583;49.084;8.646;2023-05-10T10:46:11;16.50;99.90
20845;DHT22;10583;49.084;8.646;2023-05-10T10:48:39;16.50;99.90
20845;DHT22;10583;49.084;8.646;2023-05-10T10:51:05;16.80;99.90
20845;DHT22;10583;49.084;8.646;2023-05-10T10:53:33;16.90;99.90
20845;DHT22;10583;49.084;8.646;2023-05-10T10:56:08;16.80;99.90
20845;DHT22;10583;49.084;8.646;2023-05-10T10:58:36;16.60;99.90
20845;DHT22;10583;49.084;8.646;2023-05-10T11:01:11;16.40;99.90
20845;DHT22;10583;49.084;8.646;2023-05-10T11:03:38;16.30;99.90
20845;DHT22;10583;49.084;8.646;2023-05-10T11:06:05;16.40;99.90
20845;DHT22;10583;49.084;8.646;2023-05-10T11:08:41;16.30;99.90
20845;DHT22;10583;49.084;8.646;2023-05-10T11:11:08;16.40;99.90
20845;DHT22;10583;49.084;8.646;2023-05-10T11:13:38;16.70;99.90
20845;DHT22;10583;49.084;8.646;2023-05-10T11:16:14;17.00;99.90
20845;DHT22;10583;49.084;8.646;2023-05-10T11:18:52;17.00;99.90
20845;DHT22;10583;49.084;8.646;2023-05-10T11:21:19;16.70;99.90
20845;DHT22;10583;49.084;8.646;2023-05-10T11:23:50;16.50;99.90
20845;DHT22;10583;49.084;8.646;2023-05-10T11:26:18;16.50;99.90
20845;DHT22;10583;49.084;8.646;2023-05-10T11:28:49;16.30;99.90
20845;DHT22;10583;49.084;8.646;2023-05-10T11:31:16;16.30;99.90
20845;DHT22;10583;49.084;8.646;2023-05-10T11:33:43;16.30;99.90
20845;DHT22;10583;49.084;8.646;2023-05-10T11:36:11;16.40;99.90
20845;DHT22;10583;49.084;8.646;2023-05-10T11:38:38;16.40;99.90
20845;DHT22;10583;49.084;8.646;2023-05-10T11:41:08;16.60;99.90
20845;DHT22;10583;49.084;8.646;2023-05-10T11:43:35;16.80;99.90
20845;DHT22;10583;49.084;8.646;2023-05-10T11:46:04;17.10;99.90
20845;DHT22;10583;49.084;8.646;2023-05-10T11:48:31;17.40;99.90
20845;DHT22;10583;49.084;8.646;2023-05-10T11:50:57;17.50;99.90
20845;DHT22;10583;49.084;8.646;2023-05-10T11:53:26;17.90;99.90
20845;DHT22;10583;49.084;8.646;2023-05-10T11:55:52;18.10;99.90
20845;DHT22;10583;49.084;8.646;2023-05-10T11:58:20;18.30;99.90
20845;DHT22;10583;49.084;8.646;2023-05-10T12:00:49;17.90;99.90
20845;DHT22;10583;49.084;8.646;2023-05-10T12:03:16;17.80;99.90
20845;DHT22;10583;49.084;8.646;2023-05-10T12:05:43;17.90;99.90
20845;DHT22;10583;49.084;8.646;2023-05-10T12:08:13;17.70;99.90
20845;DHT22;10583;49.084;8.646;2023-05-10T12:10:40;17.60;99.90
20845;DHT22;10583;49.084;8.646;2023-05-10T12:13:11;17.80;99.90
20845;DHT22;10583;49.084;8.646;2023-05-10T12:15:40;17.70;99.90
20845;DHT22;10583;49.084;8.646;2023-05-10T12:18:08;17.80;99.90
20845;DHT22;10583;49.084;8.646;2023-05-10T12:20:36;17.80;99.90
20845;DHT22;10583;49.084;8.646;2023-05-10T12:23:03;17.60;99.90
20845;DHT22;10583;49.084;8.646;2023-05-10T12:25:32;17.60;99.90
20845;DHT22;10583;49.084;8.646;2023-05-10T12:28:00;17.40;99.90
20845;DHT22;10583;49.084;8.646;2023-05-10T12:30:28;17.20;99.90
20845;DHT22;10583;49.084;8.646;2023-05-10T12:33:00;17.10;99.90
20845;DHT22;10583;49.084;8.646;2023-05-10T12:35:30;17.20;99.90
20845;DHT22;10583;49.084;8.646;2023-05-10T12:37:56;17.30;99.90
20845;DHT22;10583;49.084;8.646;2023-05-10T12:40:23;17.30;99.90
20845;DHT22;10583;49.084;8.646;2023-05-10T12:42:50;17.40;99.90
20845;DHT22;10583;49.084;8.646;2023-05-10T12:45:17;17.40;99.90
20845;DHT22;10583;49.084;8.646;2023-05-10T12:47:44;17.60;99.90
20845;DHT22;10583;49.084;8.646;2023-05-10T12:50:12;17.90;99.90
20845;DHT22;10583;49.084;8.646;2023-05-10T12:52:39;17.90;99.90
20845;DHT22;10583;49.084;8.646;2023-05-10T12:55:06;18.00;99.90
20845;DHT22;10583;49.084;8.646;2023-05-10T12:57:33;18.50;99.90
20845;DHT22;10583;49.084;8.646;2023-05-10T12:59:59;18.90;99.90
20845;DHT22;10583;49.084;8.646;2023-05-10T13:02:26;18.80;99.90
20845;DHT22;10583;49.084;8.646;2023-05-10T13:04:53;18.80;99.90
20845;DHT22;10583;49.084;8.646;2023-05-10T13:07:21;18.90;99.90
20845;DHT22;10583;49.084;8.646;2023-05-10T13:09:47;19.10;99.90
20845;DHT22;10583;49.084;8.646;2023-05-10T13:12:14;19.20;99.90
20845;DHT22;10583;49.084;8.646;2023-05-10T13:14:41;19.10;99.90
20845;DHT22;10583;49.084;8.646;2023-05-10T13:17:07;19.10;99.90
20845;DHT22;10583;49.084;8.646;2023-05-10T13:19:34;19.00;99.90
20845;DHT22;10583;49.084;8.646;2023-05-10T13:22:02;18.80;99.90
20845;DHT22;10583;49.084;8.646;2023-05-10T13:24:30;18.70;99.90
20845;DHT22;10583;49.084;8.646;2023-05-10T13:26:57;18.50;99.90
20845;DHT22;10583;49.084;8.646;2023-05-10T13:29:25;18.50;99.90
20845;DHT22;10583;49.084;8.646;2023-05-10T13:31:52;18.60;99.90
20845;DHT22;10583;49.084;8.646;2023-05-10T13:34:19;18.70;99.90
20845;DHT22;10583;49.084;8.646;2023-05-10T13:36:47;18.70;99.90
20845;DHT22;10583;49.084;8.646;2023-05-10T13:39:14;19.10;99.90
20845;DHT22;10583;49.084;8.646;2023-05-10T13:41:42;19.20;99.90
20845;DHT22;10583;49.084;8.646;2023-05-10T13:44:09;19.40;99.90
20845;DHT22;10583;49.084;8.646;2023-05-10T13:46:36;19.40;99.90
20845;DHT22;10583;49.084;8.646;2023-05-10T13:49:03;19.30;99.90
20845;DHT22;10583;49.084;8.646;2023-05-10T13:51:30;19.40;99.90
20845;DHT22;10583;49.084;8.646;2023-05-10T13:53:57;19.50;99.90
20845;DHT22;10583;49.084;8.646;2023-05-10T13:56:24;19.30;99.90
20845;DHT22;10583;49.084;8.646;2023-05-10T13:58:52;19.20;99.90
20845;DHT22;10583;49.084;8.646;2023-05-10T14:01:19;18.90;99.90
20845;DHT22;10583;49.084;8.646;2023-05-10T14:03:46;18.90;99.90
20845;DHT22;10583;49.084;8.646;2023-05-10T14:06:13;19.20;99.90
20845;DHT22;10583;49.084;8.646;2023-05-10T14:08:40;19.20;99.90
20845;DHT22;10583;49.084;8.646;2023-05-10T14:11:06;19.20;99.90
20845;DHT22;10583;49.084;8.646;2023-05-10T14:13:33;19.20;99.90
20845;DHT22;10583;49.084;8.646;2023-05-10T14:16:02;19.10;99.90
20845;DHT22;10583;49.084;8.646;2023-05-10T14:18:28;19.10;99.90
20845;DHT22;10583;49.084;8.646;2023-05-10T14:20:56;19.10;99.90
20845;DHT22;10583;49.084;8.646;2023-05-10T14:23:22;19.00;99.90
20845;DHT22;10583;49.084;8.646;2023-05-10T14:25:50;18.70;99.90
20845;DHT22;10583;49.084;8.646;2023-05-10T14:28:17;18.80;99.90
20845;DHT22;10583;49.084;8.646;2023-05-10T14:30:45;18.90;99.90
20845;DHT22;10583;49.084;8.646;2023-05-10T14:33:14;19.00;99.90
20845;DHT22;10583;49.084;8.646;2023-05-10T14:35:40;19.00;99.90
20845;DHT22;10583;49.084;8.646;2023-05-10T14:38:07;19.00;99.90
20845;DHT22;10583;49.084;8.646;2023-05-10T14:40:34;18.80;99.90
20845;DHT22;10583;49.084;8.646;2023-05-10T14:43:01;18.70;99.90
20845;DHT22;10583;49.084;8.646;2023-05-10T14:45:28;18.70;99.90
20845;DHT22;10583;49.084;8.646;2023-05-10T14:47:54;18.70;99.90
20845;DHT22;10583;49.084;8.646;2023-05-10T14:50:22;18.60;99.90
20845;DHT22;10583;49.084;8.646;2023-05-10T14:52:49;18.70;99.90
20845;DHT22;10583;49.084;8.646;2023-05-10T14:55:16;18.80;99.90
20845;DHT22;10583;49.084;8.646;2023-05-10T14:57:43;18.80;99.90
20845;DHT22;10583;49.084;8.646;2023-05-10T15:00:13;18.80;99.90
20845;DHT22;10583;49.084;8.646;2023-05-10T15:02:41;18.80;99.90
20845;DHT22;10583;49.084;8.646;2023-05-10T15:05:08;18.80;99.90
20845;DHT22;10583;49.084;8.646;2023-05-10T15:07:36;18.50;99.90
20845;DHT22;10583;49.084;8.646;2023-05-10T15:10:03;18.40;99.90
20845;DHT22;10583;49.084;8.646;2023-05-10T15:12:30;18.40;99.90
20845;DHT22;10583;49.084;8.646;2023-05-10T15:14:57;18.40;99.90
20845;DHT22;10583;49.084;8.646;2023-05-10T15:17:23;18.30;99.90
20845;DHT22;10583;49.084;8.646;2023-05-10T15:19:50;18.30;99.90
20845;DHT22;10583;49.084;8.646;2023-05-10T15:22:17;18.30;99.90
20845;DHT22;10583;49.084;8.646;2023-05-10T15:24:45;18.30;99.90
20845;DHT22;10583;49.084;8.646;2023-05-10T15:27:12;18.30;99.90
20845;DHT22;10583;49.084;8.646;2023-05-10T15:29:38;18.40;99.90
20845;DHT22;10583;49.084;8.646;2023-05-10T15:32:05;18.30;99.90
20845;DHT22;10583;49.084;8.646;2023-05-10T15:34:32;18.30;99.90
20845;DHT22;10583;49.084;8.646;2023-05-10T15:36:59;18.40;99.90
20845;DHT22;10583;49.084;8.646;2023-05-10T15:39:25;18.40;99.90
20845;DHT22;10583;49.084;8.646;2023-05-10T15:41:54;18.40;99.90